x

Central Aleutians 230nm Sw Dutch Harbor (46072) Wave Buoy

10:50am - Thu 23rd Oct 2014 All times are UTC.

  • Sig Wave height 6.2ft
  • Peak Period 8s
  • Average Period 5s
  • Wind
    20mph, 25mph gusts
  • Sea Temp 47°f
  • 空気 Temp 47°f
  • Sea Pressure 1025.2mb

More Historic Weather Station data

Upgrade to MSW Pro to gain access to the past 30 days of data for over 8000 Wavebouys and Weather Stations around the globe.

Join Pro

Comparision Forecast

View Surf forecast
   
Thu 10/23 10:50am 6ft 8s 5s 20 25 mph 1025.2mb 47f 47f
9:50am 7ft 9s 6s 20 22 mph 1025mb 47f 47f
8:50am 7ft 9s 6s 20 27 mph 1025mb 47f 47f
7:50am 7ft 11s 6s 13 18 mph 1025.3mb 47f 47f
6:50am 7ft 9s 6s 13 16 mph 1025.9mb 47f 47f
5:50am 7ft 10s 7s 11 16 mph 1026mb 47f 47f
4:50am 7.5ft 10s 7s 11 16 mph 1026.1mb 47f 47f
3:50am 7.5ft 9s 7s 9 11 mph 1025.6mb 47f 46f
2:50am 8ft 9s 7s 9 11 mph 1025.8mb 47f 46f
1:50am 7.5ft 8s 7s 7 9 mph 1025.6mb 47f 46f
12:50am 8ft 11s 7s 11 13 mph 1025.6mb 47f 45f
Wed 10/22 11:50pm 8.5ft 11s 7s 11 16 mph 1025.9mb 47f 45f
10:50pm 9.5ft 8s 6s 13 18 mph 1025.6mb 47f 45f
9:50pm 9.5ft 7s 6s 13 18 mph 1025.3mb 47f 44f
8:50pm 12ft 9s 7s 18 22 mph 1025mb 47f 44f
7:50pm 11ft 10s 7s 20 25 mph 1024.4mb 47f 44f
6:50pm 12ft 10s 7s 20 27 mph 1024mb 47f 44f
5:50pm 12.5ft 10s 7s 25 31 mph 1023.6mb 47f 44f
4:50pm 12.5ft 10s 7s 25 31 mph 1022.9mb 47f 44f
3:50pm 11.5ft 9s 7s 25 29 mph 1021.6mb 47f 44f
2:50pm 13ft 11s 7s 22 29 mph 1021.8mb 47f 43f
1:50pm 12ft 11s 7s 22 29 mph 1021.7mb 47f 43f
12:50pm 11.5ft 10s 7s 25 29 mph 1020.9mb 47f 43f
11:50am 12ft 10s 7s 27 31 mph 1020.6mb 47f 44f
10:50am 11.5ft 11s 6s 27 34 mph 1020.1mb 47f 44f
9:50am 12ft 8s 6s 27 31 mph 1019.7mb 47f 44f
8:50am 12.5ft 8s 6s 27 34 mph 1020mb 47f 44f
7:50am 13ft 10s 7s 29 36 mph 1018.9mb 47f 43f
6:50am 13.5ft 8s 7s 31 40 mph 1018.4mb 47f 44f
5:50am 12ft 11s 7s 29 38 mph 1018.2mb 47f 44f
4:50am 12.5ft 8s 7s 29 38 mph 1017.4mb 47f 43f
3:50am 12ft 8s 7s 29 36 mph 1016.8mb 47f 43f
2:50am 12.5ft 9s 7s 31 47 mph 1016.1mb 47f 43f
1:50am 11ft 10s 7s 25 31 mph 1016mb 47f 43f
12:50am 12ft 10s 7s 25 29 mph 1015.6mb 47f 44f
Tue 10/21 11:50pm 13ft 11s 7s 31 45 mph 1015.6mb 47f 41f
10:50pm 13ft 10s 7s 25 29 mph 1015.8mb 47f 42f
9:50pm 13ft 9s 7s 27 31 mph 1015.5mb 47f 44f
8:50pm 12ft 8s 6s 27 34 mph 1015.1mb 47f 44f
7:50pm 13ft 8s 7s 29 36 mph 1015.2mb 47f 43f
6:50pm 14ft 11s 7s 27 34 mph 1014.6mb 47f 44f
5:50pm 13ft 10s 7s 31 40 mph 1014.2mb 47f 44f
4:50pm 13.5ft 8s 7s 27 34 mph 1014.1mb 47f 44f
3:50pm 13.5ft 10s 7s 29 36 mph 1013.6mb 48f 44f
2:50pm 12ft 12s 7s 29 36 mph 1013.5mb 48f 41f
1:50pm 11ft 11s 7s 27 31 mph 1013.7mb 48f 42f
12:50pm 12ft 10s 7s 25 29 mph 1013.2mb 48f 42f
11:50am 13ft 11s 7s 25 31 mph 1012.8mb 48f 42f
10:50am 13ft 10s 7s 25 31 mph 1012.8mb 48f 42f
9:50am 11ft 12s 7s 29 36 mph 1012.3mb 48f 43f
8:50am 13ft 9s 7s 27 36 mph 1012.4mb 48f 40f
7:50am 13ft 8s 7s 27 34 mph 1011.5mb 48f 43f
6:50am 13ft 7s 7s 25 34 mph 1011.4mb 48f 41f
5:50am 13ft 8s 7s 27 31 mph 1010.7mb 48f 42f
4:50am 13ft 12s 7s 27 36 mph 1010.2mb 48f 42f
3:50am 13ft 12s 7s 31 36 mph 1009.1mb 48f 42f
2:50am 11.5ft 13s 7s 25 36 mph 1008.9mb 48f 39f
1:50am 11ft 13s 7s 27 31 mph 1007.9mb 48f 43f
12:50am 10ft 13s 7s 27 34 mph 1007.3mb 48f 43f
Mon 10/20 11:50pm 10.5ft 12s 7s 22 29 mph 1007.1mb 48f 43f
10:50pm 9ft 12s 6s 22 27 mph 1006.8mb 48f 43f
9:50pm 9ft 11s 6s 22 31 mph 1006.4mb 48f 40f
8:50pm 10ft 12s 6s 20 27 mph 1006.1mb 48f 42f
7:50pm 9ft 11s 6s 20 25 mph 1005.4mb 48f 43f
6:50pm 9ft 9s 6s 16 18 mph 1004.4mb 48f 40f
5:50pm 10ft 9s 6s 20 25 mph 1003.3mb 48f 42f
4:50pm 9ft 10s 6s 20 25 mph 1002.6mb 48f 42f
3:50pm 9.5ft 9s 6s 20 25 mph 1001.9mb 48f 42f
2:50pm 9ft 9s 6s 20 27 mph 1001.1mb 48f 42f
1:50pm 8.5ft 8s 6s 20 27 mph 1000.7mb 48f 42f
12:50pm 9ft 9s 7s 20 25 mph 1000.2mb 48f 42f
11:50am 9ft 8s 6s 16 20 mph 999.9mb 48f 42f
10:50am 9.5ft 9s 6s 18 22 mph 999.2mb 48f 42f
9:50am 10ft 9s 6s 16 20 mph 999.1mb 48f 43f
8:50am 10.5ft 9s 6s 18 25 mph 998.5mb 48f 43f
7:50am 10ft 9s 6s 20 22 mph 998.1mb 48f 43f
6:50am 11.5ft 9s 6s 25 31 mph 996.7mb 48f 43f
5:50am 10.5ft 10s 6s 25 29 mph 995.7mb 48f 44f
3:50am 12ft 9s 7s 22 27 mph 994.3mb 48f 47f
2:50am 11.5ft 9s 7s 25 29 mph 994.1mb 48f 47f
1:50am 11ft 9s 7s 25 29 mph 994.3mb 48f 47f
12:50am 10ft 9s 7s 22 29 mph 994.4mb 48f 48f
Sun 10/19 11:50pm 10ft 8s 6s 25 31 mph 994.7mb 48f 47f
10:50pm 9ft 9s 7s 22 27 mph 995mb 48f 47f
9:50pm 10.5ft 9s 7s 22 25 mph 995.4mb 48f 48f
8:50pm 9.5ft 9s 6s 25 29 mph 995.7mb 48f 48f
7:50pm 9ft 9s 6s 25 29 mph 996mb 48f 48f
6:50pm 10ft 9s 6s 25 29 mph 995.7mb 48f 48f
5:50pm 8.5ft 8s 6s 22 27 mph 995.9mb 48f 48f
4:50pm 8ft 8s 6s 22 27 mph 996.2mb 48f 48f
3:50pm 7ft 10s 6s 22 29 mph 996.5mb 48f 48f
2:50pm 8ft 6s 6s 20 25 mph 997.1mb 48f 48f
1:50pm 7ft 10s 5s 16 18 mph 998mb 48f 49f
12:50pm 8.5ft 6s 5s 11 16 mph 998.8mb 48f 49f